ADDS METAR Data INFO
IDs: Format: Raw Decoded Include TAF

Data at: 2033 UTC 20 Jul 2018

KIXA 202015Z AUTO 07003KT 10SM SCT060 27/19 A3003 RMK AO2
KIXA 201955Z AUTO 07004KT 10SM CLR 27/18 A3003 RMK AO2
KIXA 201935Z AUTO 07005KT 10SM BKN060 BKN075 BKN085 27/18 A3004 RMK AO2
KIXA 201915Z AUTO 08005KT 10SM BKN060 BKN070 27/17 A3005 RMK AO2
KIXA 201855Z AUTO 08004KT 10SM BKN070 BKN080 27/17 A3006 RMK AO2
KIXA 201835Z AUTO 09006KT 10SM BKN070 BKN080 27/16 A3006 RMK AO2
KIXA 201815Z AUTO 09006KT 10SM SCT055 SCT080 27/17 A3006 RMK AO2
KIXA 201755Z AUTO 08007KT 050V110 10SM CLR 27/16 A3007 RMK AO2
KIXA 201735Z AUTO 09004KT 10SM CLR 27/17 A3007 RMK AO2
KIXA 201715Z AUTO 10004KT 10SM SCT075 SCT110 27/17 A3008 RMK AO2
KIXA 201655Z AUTO 12005KT 10SM SCT044 SCT060 SCT075 27/17 A3008 RMK AO2
KIXA 201635Z AUTO 08005KT 10SM SCT060 SCT075 27/18 A3008 RMK AO2
KIXA 201615Z AUTO 00000KT 10SM SCT060 SCT075 27/18 A3009 RMK AO2
KIXA 201555Z AUTO 08007KT 10SM SCT041 SCT050 BKN070 27/18 A3010 RMK AO2
KIXA 201535Z AUTO 09006KT 10SM SCT070 27/18 A3011 RMK AO2
KIXA 201515Z AUTO 00000KT 10SM CLR 27/18 A3011 RMK AO2
KIXA 201455Z AUTO 00000KT 10SM SCT060 26/20 A3010 RMK AO2
KIXA 201435Z AUTO 00000KT 10SM CLR 25/20 A3011 RMK AO2
KIXA 201415Z AUTO 00000KT 10SM CLR 25/20 A3010 RMK AO2
KIXA 201355Z AUTO 00000KT 10SM CLR 25/21 A3010 RMK AO2
KIXA 201335Z AUTO 00000KT 10SM CLR 23/20 A3011 RMK AO2
KIXA 201315Z AUTO 00000KT 10SM CLR 23/20 A3011 RMK AO2
KIXA 201255Z AUTO 00000KT 10SM CLR 22/20 A3010 RMK AO2
KIXA 201235Z AUTO 00000KT 10SM CLR 22/20 A3009 RMK AO2
KIXA 201215Z AUTO 00000KT 10SM CLR 21/21 A3009 RMK AO2
KIXA 201155Z AUTO 00000KT 10SM CLR 20/20 A3009 RMK AO2
KIXA 201135Z AUTO 00000KT 10SM CLR 19/19 A3009 RMK AO2
KIXA 201115Z AUTO 00000KT 4SM BR CLR 17/17 A3009 RMK AO2
KIXA 201055Z AUTO 00000KT 3SM BR CLR 16/16 A3009 RMK AO2
KIXA 201035Z AUTO 00000KT 1/4SM FG OVC002 16/16 A3008 RMK AO2
KIXA 201015Z AUTO 00000KT 1 1/4SM BR OVC002 16/16 A3008 RMK AO2
KIXA 200955Z AUTO 00000KT 7SM SCT002 16/16 A3008 RMK AO2
KIXA 200935Z AUTO 00000KT 1 3/4SM BR VV007 15/15 A3008 RMK AO2
KIXA 200915Z AUTO 00000KT 1 1/4SM BR VV007 16/16 A3008 RMK AO2
KIXA 200855Z AUTO 00000KT 1SM BR VV007 16/16 A3008 RMK AO2
KIXA 200835Z AUTO 00000KT 5SM BR CLR 16/16 A3007 RMK AO2
KIXA 200815Z AUTO 00000KT 4SM BR CLR 16/16 A3008 RMK AO2
KIXA 200755Z AUTO 00000KT 10SM CLR 17/17 A3008 RMK AO2
KIXA 200735Z AUTO 00000KT 7SM CLR 16/16 A3008 RMK AO2
KIXA 200715Z AUTO 00000KT 10SM CLR 17/17 A3008 RMK AO2
KIXA 200655Z AUTO 00000KT 10SM CLR 17/17 A3008 RMK AO2
KIXA 200635Z AUTO 00000KT 10SM CLR 18/18 A3008 RMK AO2
KIXA 200615Z AUTO 00000KT 10SM CLR 18/18 A3008 RMK AO2
KIXA 200555Z AUTO 00000KT 10SM SCT075 18/18 A3009 RMK AO2
KIXA 200535Z AUTO 00000KT 10SM BKN075 20/18 A3009 RMK AO2
KIXA 200515Z AUTO 00000KT 10SM BKN075 20/18 A3009 RMK AO2
KIXA 200455Z AUTO 00000KT 10SM SCT075 20/18 A3009 RMK AO2
KIXA 200435Z AUTO 00000KT 10SM CLR 20/17 A3010 RMK AO2
KIXA 200415Z AUTO 00000KT 10SM CLR 20/17 A3009 RMK AO2
KIXA 200355Z AUTO 00000KT 10SM CLR 21/17 A3009 RMK AO2
KIXA 200335Z AUTO 00000KT 10SM CLR 21/17 A3009 RMK AO2
KIXA 200315Z AUTO 00000KT 10SM CLR 21/17 A3009 RMK AO2
KIXA 200255Z AUTO 00000KT 10SM CLR 22/17 A3009 RMK AO2
KIXA 200235Z AUTO 00000KT 10SM CLR 22/16 A3009 RMK AO2
KIXA 200215Z AUTO 00000KT 10SM CLR 22/16 A3008 RMK AO2
KIXA 200155Z AUTO 00000KT 10SM CLR 23/16 A3008 RMK AO2
KIXA 200135Z AUTO 11003KT 10SM CLR 22/17 A3007 RMK AO2
KIXA 200115Z AUTO 00000KT 10SM CLR 22/17 A3006 RMK AO2
KIXA 200055Z AUTO 00000KT 10SM CLR 23/17 A3005 RMK AO2
KIXA 200035Z AUTO 00000KT 10SM CLR 24/17 A3005 RMK AO2
KIXA 200015Z AUTO 00000KT 10SM CLR 25/17 A3004 RMK AO2
KIXA 192355Z AUTO 00000KT 10SM CLR 26/17 A3004 RMK AO2
KIXA 192335Z AUTO 00000KT 10SM CLR 26/17 A3003 RMK AO2
KIXA 192315Z AUTO 00000KT 10SM CLR 27/16 A3003 RMK AO2
KIXA 192255Z AUTO 00000KT 10SM CLR 28/16 A3003 RMK AO2
KIXA 192235Z AUTO 00000KT 10SM CLR 28/15 A3003 RMK AO2
KIXA 192215Z AUTO 00000KT 10SM CLR 28/14 A3003 RMK AO2
KIXA 192155Z AUTO 00000KT 10SM CLR 29/13 A3002 RMK AO2
KIXA 192135Z AUTO 11003KT 10SM CLR 30/13 A3002 RMK AO2
KIXA 192115Z AUTO 10004KT 10SM CLR 30/12 A3003 RMK AO2
KIXA 192055Z AUTO 11005KT 10SM CLR 30/13 A3004 RMK AO2
KIXA 192035Z AUTO 07004KT 10SM CLR 30/12 A3004 RMK AO2
KIXA 192015Z AUTO 06004KT 10SM CLR 30/11 A3005 RMK AO2
KIXA 191955Z AUTO 00000KT 10SM CLR 30/11 A3005 RMK AO2
KIXA 191935Z AUTO 16006KT 10SM CLR 30/12 A3006 RMK AO2
KIXA 191915Z AUTO 03005KT 10SM SCT075 29/12 A3006 RMK AO2
KIXA 191855Z AUTO 07007KT 10SM SCT075 29/13 A3006 RMK AO2
KIXA 191835Z AUTO 10003KT 10SM CLR 29/13 A3006 RMK AO2
KIXA 191815Z AUTO 09003KT 10SM CLR 29/12 A3007 RMK AO2
KIXA 191755Z AUTO 07005KT 10SM CLR 29/12 A3007 RMK AO2
KIXA 191735Z AUTO 09005KT 10SM CLR 29/13 A3007 RMK AO2
KIXA 191715Z AUTO 11004KT 10SM CLR 28/12 A3008 RMK AO2
KIXA 191655Z AUTO 07005KT 10SM CLR 28/12 A3008 RMK AO2
KIXA 191635Z AUTO 13005KT 10SM SCT060 28/11 A3008 RMK AO2
KIXA 191615Z AUTO 13003KT 10SM SCT060 28/13 A3008 RMK AO2
KIXA 191555Z AUTO 04005KT 10SM CLR 28/16 A3008 RMK AO2
KIXA 191535Z AUTO 07006KT 10SM CLR 27/16 A3008 RMK AO2
KIXA 191515Z AUTO 09005KT 10SM CLR 27/17 A3008 RMK AO2
KIXA 191455Z AUTO 00000KT 10SM CLR 26/16 A3008 RMK AO2
KIXA 191435Z AUTO 00000KT 10SM CLR 26/17 A3008 RMK AO2
KIXA 191415Z AUTO 00000KT 10SM CLR 25/17 A3008 RMK AO2
KIXA 191355Z AUTO 00000KT 10SM CLR 25/17 A3008 RMK AO2
KIXA 191335Z AUTO 00000KT 10SM CLR 23/17 A3008 RMK AO2
KIXA 191315Z AUTO 00000KT 10SM CLR 23/17 A3008 RMK AO2
KIXA 191255Z AUTO 00000KT 10SM CLR 22/16 A3007 RMK AO2
KIXA 191235Z AUTO 00000KT 10SM CLR 21/16 A3006 RMK AO2
KIXA 191215Z AUTO 00000KT 10SM CLR 21/18 A3006 RMK AO2
KIXA 191155Z AUTO 00000KT 10SM CLR 19/17 A3006 RMK AO2
KIXA 191135Z AUTO 00000KT 10SM CLR 18/17 A3005 RMK AO2
KIXA 191115Z AUTO 00000KT 10SM CLR 16/16 A3004 RMK AO2
KIXA 191055Z AUTO 00000KT 10SM CLR 15/15 A3004 RMK AO2
KIXA 191035Z AUTO 00000KT 5SM BR CLR 15/15 A3004 RMK AO2
KIXA 191015Z AUTO 00000KT 10SM CLR 15/15 A3003 RMK AO2
KIXA 190955Z AUTO 00000KT 10SM CLR 15/15 A3003 RMK AO2
KIXA 190935Z AUTO 00000KT 10SM CLR 16/16 A3002 RMK AO2
KIXA 190915Z AUTO 00000KT 10SM CLR 16/16 A3002 RMK AO2
KIXA 190855Z AUTO 00000KT 10SM CLR 15/15 A3001 RMK AO2
KIXA 190835Z AUTO 00000KT 10SM CLR 15/15 A3001 RMK AO2